Time;durP1;ratioP1;P1;durP2;ratioP2;P2;SDS_P1;SDS_P2;PMS_P1;PMS_P2;Temp;Humidity;BMP_temperature;BMP_pressure;BME280_temperature;BME280_humidity;BME280_pressure;Samples;Min_cycle;Max_cycle;Signal;HPM_P1;HPM_P2
2022/11/30 00:01:52;;;;;;;9.10;4.95;;;;;;;6.12;67.14;100773.44;5086083;28;20035;-70
2022/11/30 00:04:17;;;;;;;8.23;5.18;;;;;;;5.99;68.65;100772.66;5092167;28;20498;-71
2022/11/30 00:06:42;;;;;;;10.90;6.68;;;;;;;5.76;71.57;100775.97;5090621;28;20046;-71
2022/11/30 00:09:08;;;;;;;11.35;7.40;;;;;;;5.50;73.50;100773.44;5090847;28;20047;-71
2022/11/30 00:11:33;;;;;;;13.70;7.88;;;;;;;5.29;75.70;100764.53;5072935;28;20046;-71
2022/11/30 00:13:59;;;;;;;18.77;10.50;;;;;;;5.08;77.91;100763.41;5088652;28;20028;-71
2022/11/30 00:16:26;;;;;;;19.40;10.18;;;;;;;4.81;80.77;100779.78;5091140;28;20054;-71
2022/11/30 00:18:51;;;;;;;17.63;10.55;;;;;;;4.59;82.86;100782.94;5089329;28;20038;-71
2022/11/30 00:21:17;;;;;;;15.10;8.82;;;;;;;4.53;81.79;100774.75;5089288;28;20024;-71
2022/11/30 00:23:45;;;;;;;13.43;9.25;;;;;;;4.54;82.77;100774.66;5086519;28;20040;-71
2022/11/30 00:26:13;;;;;;;17.80;9.63;;;;;;;4.46;84.04;100776.06;5089651;28;20043;-71
2022/11/30 00:28:39;;;;;;;15.80;9.30;;;;;;;4.36;85.00;100777.56;5089976;28;20478;-71
2022/11/30 00:31:07;;;;;;;12.80;8.13;;;;;;;4.23;85.85;100787.84;5085795;28;20028;-71
2022/11/30 00:33:34;;;;;;;13.10;8.15;;;;;;;4.18;87.19;100780.41;5087056;28;20031;-70
2022/11/30 00:36:03;;;;;;;14.45;8.48;;;;;;;4.09;88.08;100786.13;5086073;28;20067;-71
2022/11/30 00:38:31;;;;;;;15.98;9.23;;;;;;;3.99;88.86;100795.34;5092569;28;20028;-71
2022/11/30 00:40:56;;;;;;;13.75;8.27;;;;;;;3.91;89.67;100802.72;5084775;28;20020;-71
2022/11/30 00:43:22;;;;;;;13.45;8.57;;;;;;;3.84;90.32;100812.59;5089160;28;20039;-71
2022/11/30 00:45:47;;;;;;;16.65;9.98;;;;;;;3.76;91.14;100824.31;5091501;28;20027;-71
2022/11/30 00:48:13;;;;;;;15.65;9.57;;;;;;;3.61;92.82;100826.88;5062416;28;20486;-70
2022/11/30 00:50:38;;;;;;;16.88;9.90;;;;;;;3.54;91.82;100815.25;5101089;28;20044;-71
2022/11/30 00:53:04;;;;;;;13.05;8.75;;;;;;;3.52;92.46;100814.53;5093309;28;20036;-70
2022/11/30 00:55:31;;;;;;;17.15;10.27;;;;;;;3.42;93.74;100826.28;5094581;28;20139;-70
2022/11/30 00:57:57;;;;;;;15.80;9.35;;;;;;;3.35;94.19;100830.13;5085426;28;20421;-70
2022/11/30 01:00:22;;;;;;;16.50;8.65;;;;;;;3.29;95.23;100825.38;5097257;28;20042;-70
2022/11/30 01:02:47;;;;;;;18.65;10.52;;;;;;;3.20;96.27;100833.63;5093838;28;20074;-71
2022/11/30 01:05:13;;;;;;;15.63;9.45;;;;;;;3.15;96.61;100833.06;5091380;28;20067;-71
2022/11/30 01:07:38;;;;;;;18.70;10.77;;;;;;;3.05;97.46;100837.91;5098598;28;20040;-70
2022/11/30 01:10:04;;;;;;;16.38;10.18;;;;;;;2.99;97.99;100833.09;5093260;28;20036;-70
2022/11/30 01:12:30;;;;;;;17.85;11.13;;;;;;;2.94;98.39;100830.78;5102398;28;20115;-70
2022/11/30 01:14:55;;;;;;;19.33;10.38;;;;;;;2.86;99.30;100834.69;5085701;28;20107;-70
2022/11/30 01:17:21;;;;;;;16.73;10.30;;;;;;;2.83;99.42;100834.91;5099155;28;20410;-70
2022/11/30 01:19:46;;;;;;;18.23;11.07;;;;;;;2.78;100.00;100829.19;5090642;28;20409;-71
2022/11/30 01:22:11;;;;;;;18.13;10.43;;;;;;;2.74;100.00;100833.66;5093096;28;20462;-70
2022/11/30 01:24:37;;;;;;;18.50;10.70;;;;;;;2.65;100.00;100824.72;5083744;28;20039;-71
2022/11/30 01:27:02;;;;;;;19.20;11.20;;;;;;;2.58;100.00;100832.84;5085161;28;20028;-70
2022/11/30 01:29:28;;;;;;;18.00;9.73;;;;;;;2.51;100.00;100828.94;5086724;28;20105;-71
2022/11/30 01:31:53;;;;;;;21.00;11.20;;;;;;;2.47;100.00;100819.75;5088748;28;20375;-69
2022/11/30 01:34:19;;;;;;;17.80;11.55;;;;;;;2.44;100.00;100819.91;5085545;28;20078;-70
2022/11/30 01:36:47;;;;;;;15.93;9.43;;;;;;;2.43;100.00;100805.38;5088658;28;20065;-70
2022/11/30 01:39:13;;;;;;;18.23;10.85;;;;;;;2.61;100.00;100794.91;5088597;28;20036;-69
2022/11/30 01:41:39;;;;;;;16.98;9.77;;;;;;;2.79;100.00;100790.50;5088906;28;20094;-70
2022/11/30 01:44:04;;;;;;;20.83;12.05;;;;;;;2.78;100.00;100793.16;5085544;28;20032;-70
2022/11/30 01:46:55;;;;;;;18.83;11.27;;;;;;;2.83;99.46;100799.69;5090402;28;20094;-70
2022/11/30 01:49:43;;;;;;;19.30;11.45;;;;;;;2.93;98.99;100794.81;5070801;28;20435;-70
2022/11/30 01:52:17;;;;;;;17.77;10.65;;;;;;;3.01;99.47;100792.66;5087214;28;20040;-70
2022/11/30 01:54:53;;;;;;;17.48;10.13;;;;;;;3.10;99.56;100799.03;5085821;28;20360;-70
2022/11/30 01:57:34;;;;;;;17.08;9.38;;;;;;;3.12;100.00;100797.19;5091929;28;20052;-70
2022/11/30 02:00:06;;;;;;;17.67;10.23;;;;;;;3.15;100.00;100804.72;5087730;28;20115;-70
2022/11/30 02:02:42;;;;;;;19.48;11.55;;;;;;;3.13;99.23;100811.72;5085640;28;20028;-70
2022/11/30 02:05:08;;;;;;;;;;;;;;;3.29;98.24;100804.75;5091742;28;20123;-70
2022/11/30 02:07:34;;;;;;;;;;;;;;;3.28;99.11;100811.66;5083910;28;19912;-70
2022/11/30 02:09:59;;;;;;;21.60;11.00;;;;;;;3.24;100.00;100806.78;5091945;28;19965;-70
2022/11/30 02:12:41;;;;;;;19.75;11.73;;;;;;;3.16;100.00;100803.81;5086436;28;20161;-70
2022/11/30 02:15:16;;;;;;;24.23;10.85;;;;;;;3.10;100.00;100799.84;5091016;28;20082;-70
2022/11/30 02:17:52;;;;;;;20.70;11.20;;;;;;;3.10;100.00;100804.16;5087883;28;20032;-70
2022/11/30 02:20:52;;;;;;;18.88;11.63;;;;;;;3.07;100.00;100791.47;5089552;28;20461;-70
2022/11/30 02:23:48;;;;;;;16.00;10.43;;;;;;;3.02;100.00;100793.47;5088129;28;20032;-70
2022/11/30 02:26:32;;;;;;;22.77;12.75;;;;;;;2.96;100.00;100787.75;5094610;28;20036;-70
2022/11/30 02:28:58;;;;;;;15.25;9.80;;;;;;;2.96;100.00;100782.63;5093286;28;20526;-69
2022/11/30 02:31:30;;;;;;;19.98;10.65;;;;;;;3.06;100.00;100792.38;5097551;28;20044;-70
2022/11/30 02:33:58;;;;;;;19.23;10.85;;;;;;;3.12;100.00;100799.75;5089243;28;20471;-70
2022/11/30 02:36:24;;;;;;;17.42;10.82;;;;;;;3.02;100.00;100796.06;5091353;28;20451;-70
2022/11/30 02:38:51;;;;;;;15.85;8.77;;;;;;;3.15;100.00;100794.44;5098258;28;20032;-70
2022/11/30 02:41:16;;;;;;;16.80;9.60;;;;;;;3.29;100.00;100794.47;5093086;28;20067;-70
2022/11/30 02:43:42;;;;;;;15.13;9.07;;;;;;;3.32;100.00;100795.09;5101644;28;20112;-69
2022/11/30 02:46:17;;;;;;;16.33;8.82;;;;;;;3.26;100.00;100785.16;5094378;28;20062;-70
2022/11/30 02:49:01;;;;;;;11.82;7.32;;;;;;;3.57;99.59;100791.91;5091921;28;20028;-70
2022/11/30 02:51:30;;;;;;;9.85;6.07;;;;;;;4.18;93.34;100772.66;5094889;28;20137;-70
2022/11/30 02:53:56;;;;;;;13.18;6.72;;;;;;;4.79;87.40;100776.47;5072719;28;20035;-71
2022/11/30 02:56:22;;;;;;;10.93;6.97;;;;;;;4.82;87.59;100763.34;5098986;28;20414;-71
2022/11/30 02:58:47;;;;;;;10.38;5.85;;;;;;;4.98;84.63;100758.84;5095617;28;20027;-69
2022/11/30 03:01:13;;;;;;;10.02;6.13;;;;;;;5.16;83.50;100766.31;5096433;28;20463;-69
2022/11/30 03:03:38;;;;;;;10.68;5.93;;;;;;;5.27;82.14;100743.13;5090884;28;20023;-70
2022/11/30 03:06:04;;;;;;;10.32;5.82;;;;;;;5.33;80.82;100748.72;5077482;28;20059;-69
2022/11/30 03:08:29;;;;;;;8.10;5.80;;;;;;;5.33;79.95;100734.97;5094849;28;20028;-70
2022/11/30 03:10:55;;;;;;;7.95;5.82;;;;;;;5.34;79.46;100749.56;5090474;28;20032;-70
2022/11/30 03:13:20;;;;;;;10.68;6.53;;;;;;;5.38;80.53;100751.00;5094653;28;21093;-71
2022/11/30 03:15:46;;;;;;;10.20;6.13;;;;;;;5.34;81.42;100752.97;5091300;28;20032;-70
2022/11/30 03:18:13;;;;;;;10.70;6.32;;;;;;;5.24;82.09;100759.69;5085183;28;20040;-71
2022/11/30 03:20:42;;;;;;;9.48;5.55;;;;;;;5.12;82.79;100770.84;5088841;28;20502;-71
2022/11/30 03:23:07;;;;;;;9.82;6.32;;;;;;;5.07;84.40;100756.59;5071218;28;20769;-70
2022/11/30 03:25:33;;;;;;;10.65;5.70;;;;;;;4.93;85.94;100776.41;5086792;28;20089;-70
2022/11/30 03:28:00;;;;;;;10.35;6.70;;;;;;;4.77;88.01;100770.56;5072664;28;20032;-70
2022/11/30 03:30:26;;;;;;;11.05;7.43;;;;;;;4.66;89.03;100765.31;5088820;28;20040;-70
2022/11/30 03:32:51;;;;;;;11.23;6.85;;;;;;;4.52;90.78;100779.09;5089326;28;20097;-70
2022/11/30 03:35:17;;;;;;;10.70;7.00;;;;;;;4.36;91.65;100772.41;5088905;28;20039;-70
2022/11/30 03:37:43;;;;;;;13.52;7.43;;;;;;;4.25;92.74;100786.00;5101542;28;20058;-71
2022/11/30 03:40:09;;;;;;;11.85;7.30;;;;;;;4.05;93.85;100794.16;5098542;28;20038;-70
2022/11/30 03:42:34;;;;;;;12.88;7.57;;;;;;;4.02;94.09;100776.28;5096082;28;20035;-70
2022/11/30 03:44:59;;;;;;;11.10;7.35;;;;;;;3.96;95.06;100773.16;5093177;28;20056;-70
2022/11/30 03:47:25;;;;;;;11.68;6.65;;;;;;;3.90;94.93;100772.72;5101643;28;20028;-70
2022/11/30 03:49:50;;;;;;;10.95;7.03;;;;;;;3.92;94.48;100783.75;5105295;28;20030;-70
2022/11/30 03:52:16;;;;;;;11.05;6.63;;;;;;;4.04;93.67;100780.44;5088421;28;20039;-69
2022/11/30 03:54:41;;;;;;;12.57;7.13;;;;;;;3.99;94.86;100782.47;5096414;28;20545;-70
2022/11/30 03:57:06;;;;;;;12.30;7.45;;;;;;;3.89;95.11;100774.47;5101442;28;20035;-71
2022/11/30 03:59:32;;;;;;;9.60;6.20;;;;;;;3.95;95.07;100778.41;5095409;28;20040;-70
2022/11/30 04:01:57;;;;;;;9.77;6.05;;;;;;;4.03;94.77;100778.78;5096479;28;20028;-71
2022/11/30 04:04:23;;;;;;;10.65;6.25;;;;;;;4.04;94.80;100780.44;5093616;28;20120;-70
2022/11/30 04:06:48;;;;;;;10.40;6.40;;;;;;;4.07;94.83;100779.41;5091143;28;20053;-70
2022/11/30 04:09:14;;;;;;;11.48;6.93;;;;;;;4.01;95.57;100788.34;5087197;28;20036;-70
2022/11/30 04:11:39;;;;;;;10.45;6.65;;;;;;;3.92;96.04;100788.91;5096022;28;20073;-70
2022/11/30 04:14:05;;;;;;;11.60;7.25;;;;;;;3.84;96.71;100788.56;5094687;28;20391;-70
2022/11/30 04:16:30;;;;;;;10.68;7.00;;;;;;;3.77;97.46;100782.97;5076825;28;20028;-70
2022/11/30 04:18:56;;;;;;;14.13;8.15;;;;;;;3.69;98.84;100792.09;5098188;28;20053;-70
2022/11/30 04:21:21;;;;;;;12.73;8.18;;;;;;;3.61;99.32;100792.53;5087126;28;20356;-70
2022/11/30 04:23:47;;;;;;;11.60;7.18;;;;;;;3.55;99.21;100791.16;5087365;28;20302;-71
2022/11/30 04:26:15;;;;;;;12.55;7.13;;;;;;;3.59;99.18;100791.81;5087710;28;20040;-70
2022/11/30 04:28:41;;;;;;;11.25;6.55;;;;;;;3.59;99.42;100795.22;5085795;28;20082;-70
2022/11/30 04:31:07;;;;;;;13.57;7.35;;;;;;;3.56;99.71;100797.97;5095603;28;20432;-70
2022/11/30 04:33:33;;;;;;;17.58;7.88;;;;;;;3.54;100.00;100793.81;5091890;28;20058;-70
2022/11/30 04:36:01;;;;;;;12.27;7.43;;;;;;;3.50;99.94;100795.75;5090102;28;20578;-70
2022/11/30 04:38:27;;;;;;;13.25;7.80;;;;;;;3.46;100.00;100789.13;5093695;28;20028;-70
2022/11/30 04:40:53;;;;;;;12.48;7.70;;;;;;;3.46;100.00;100786.53;5085289;28;20076;-70
2022/11/30 04:43:19;;;;;;;14.50;8.52;;;;;;;3.49;100.00;100786.38;5092978;28;20035;-70
2022/11/30 04:45:45;;;;;;;12.77;7.78;;;;;;;3.49;99.95;100788.13;5089721;28;20032;-70
2022/11/30 04:48:11;;;;;;;28.75;13.68;;;;;;;3.38;99.69;100788.75;5096344;28;20028;-70
2022/11/30 04:50:38;;;;;;;26.15;11.93;;;;;;;3.48;99.28;100787.28;5069774;28;20502;-70
2022/11/30 04:53:04;;;;;;;23.58;12.13;;;;;;;3.47;99.06;100788.19;5083432;28;20040;-70
2022/11/30 04:55:29;;;;;;;29.52;13.63;;;;;;;3.35;100.00;100804.38;5093658;28;20034;-70
2022/11/30 04:57:55;;;;;;;21.88;11.13;;;;;;;3.32;99.77;100789.09;5091849;28;20020;-70
2022/11/30 05:00:20;;;;;;;19.98;9.60;;;;;;;3.38;99.39;100798.22;5089076;28;20052;-70
2022/11/30 05:02:46;;;;;;;17.85;9.57;;;;;;;3.29;100.00;100799.63;5092247;28;20070;-71
2022/11/30 05:05:11;;;;;;;14.75;9.00;;;;;;;3.25;100.00;100787.84;5089791;28;20032;-70
2022/11/30 05:07:37;;;;;;;17.27;9.98;;;;;;;3.29;100.00;100789.31;5084839;28;20086;-70
2022/11/30 05:10:05;;;;;;;13.40;7.72;;;;;;;3.30;100.00;100799.53;5090242;28;20495;-70
2022/11/30 05:12:30;;;;;;;15.38;7.38;;;;;;;3.41;99.53;100798.03;5092726;28;20529;-70
2022/11/30 05:14:55;;;;;;;11.57;7.45;;;;;;;3.53;98.01;100781.84;5088711;28;20032;-70
2022/11/30 05:17:21;;;;;;;11.80;7.43;;;;;;;3.53;98.22;100798.16;5089986;28;20040;-70
2022/11/30 05:19:46;;;;;;;10.15;7.10;;;;;;;3.61;97.45;100801.09;5090124;28;20036;-70
2022/11/30 05:22:12;;;;;;;10.93;6.70;;;;;;;3.60;97.63;100802.03;5086949;28;20035;-70
2022/11/30 05:24:38;;;;;;;13.40;6.88;;;;;;;3.54;97.49;100811.84;5084647;28;20045;-70
2022/11/30 05:27:03;;;;;;;9.45;5.70;;;;;;;3.46;98.25;100804.56;5086923;28;20036;-70
2022/11/30 05:29:29;;;;;;;11.98;6.43;;;;;;;3.48;98.05;100817.38;5088412;28;20034;-70
2022/11/30 05:31:54;;;;;;;9.32;5.80;;;;;;;3.52;98.11;100817.09;5092338;28;20557;-70
2022/11/30 05:34:20;;;;;;;11.02;6.25;;;;;;;3.52;98.02;100814.53;5093208;28;20043;-70
2022/11/30 05:36:45;;;;;;;10.95;5.50;;;;;;;3.54;97.62;100820.41;5086300;28;20508;-70
2022/11/30 05:39:10;;;;;;;9.07;5.75;;;;;;;3.49;98.18;100817.28;5069317;28;20147;-70
2022/11/30 05:41:36;;;;;;;10.85;6.28;;;;;;;3.52;98.89;100814.53;5086218;28;20371;-70
2022/11/30 05:44:02;;;;;;;9.93;5.70;;;;;;;3.55;97.13;100816.91;5086613;28;20047;-70
2022/11/30 05:46:27;;;;;;;10.23;6.63;;;;;;;3.55;97.37;100813.50;5091710;28;20032;-70
2022/11/30 05:48:52;;;;;;;11.90;6.60;;;;;;;3.51;98.01;100819.75;5073196;28;20114;-70
2022/11/30 05:51:20;;;;;;;9.65;5.82;;;;;;;3.50;98.24;100816.38;5099222;28;20042;-70
2022/11/30 05:53:45;;;;;;;9.77;6.05;;;;;;;3.52;98.09;100806.78;5090315;28;20043;-70
2022/11/30 05:56:17;;;;;;;11.50;6.75;;;;;;;3.54;98.58;100799.81;5088717;28;20028;-70
2022/11/30 05:58:43;;;;;;;12.77;5.32;;;;;;;3.56;98.36;100797.97;5084782;28;20090;-70
2022/11/30 06:01:17;;;;;;;10.27;5.82;;;;;;;3.53;98.37;100802.47;5092221;28;20475;-70
2022/11/30 06:03:43;;;;;;;9.82;5.70;;;;;;;3.49;99.36;100801.00;5096040;28;20097;-70
2022/11/30 06:06:08;;;;;;;9.10;6.07;;;;;;;3.42;99.68;100800.53;5100053;28;20024;-70
2022/11/30 06:08:34;;;;;;;10.30;6.32;;;;;;;3.41;98.36;100803.19;5091652;28;20439;-70
2022/11/30 06:11:00;;;;;;;10.23;6.85;;;;;;;3.36;99.10;100808.59;5099779;28;20429;-70
2022/11/30 06:13:26;;;;;;;10.95;5.88;;;;;;;3.32;100.00;100807.13;5096315;28;20514;-70
2022/11/30 06:15:51;;;;;;;12.75;6.75;;;;;;;3.30;100.00;100809.00;5095214;28;20031;-70
2022/11/30 06:18:16;;;;;;;10.15;7.13;;;;;;;3.21;100.00;100819.81;5097254;28;20032;-71
2022/11/30 06:20:42;;;;;;;13.20;6.97;;;;;;;3.28;99.23;100806.50;5100114;28;20063;-70
2022/11/30 06:23:07;;;;;;;10.52;6.20;;;;;;;3.24;99.71;100807.59;5095018;28;20032;-70
2022/11/30 06:25:33;;;;;;;12.55;8.20;;;;;;;3.24;100.00;100817.06;5093576;28;20348;-70
2022/11/30 06:27:59;;;;;;;12.65;7.80;;;;;;;3.26;100.00;100821.22;5093741;28;20032;-70
2022/11/30 06:30:24;;;;;;;16.10;8.65;;;;;;;3.28;100.00;100819.38;5096874;28;20024;-70
2022/11/30 06:32:51;;;;;;;19.00;10.43;;;;;;;3.28;100.00;100818.56;5091393;28;20114;-70
2022/11/30 06:35:17;;;;;;;18.70;9.15;;;;;;;3.31;100.00;100826.06;5095072;28;20028;-70
2022/11/30 06:37:43;;;;;;;18.50;8.80;;;;;;;3.34;100.00;100824.16;5092536;28;20036;-70
2022/11/30 06:40:11;;;;;;;12.95;8.30;;;;;;;3.29;100.00;100826.19;5097762;28;20632;-70
2022/11/30 06:42:37;;;;;;;7.93;3.97;;;;;;;3.75;94.88;100827.78;5099163;28;20463;-70
2022/11/30 06:45:04;;;;;;;6.72;3.70;;;;;;;4.31;91.76;100816.56;5087880;28;20061;-70
2022/11/30 06:47:30;;;;;;;9.30;5.18;;;;;;;4.33;92.59;100809.56;5088708;28;20478;-70
2022/11/30 06:49:55;;;;;;;9.07;4.95;;;;;;;4.22;93.87;100817.97;5096720;28;20039;-70
2022/11/30 06:52:21;;;;;;;10.65;4.75;;;;;;;4.14;94.84;100815.03;5102299;28;20111;-70
2022/11/30 06:54:46;;;;;;;8.70;5.00;;;;;;;4.09;94.90;100827.38;5092263;28;20035;-70
2022/11/30 06:57:12;;;;;;;9.70;4.70;;;;;;;4.18;94.47;100826.00;5090718;28;20051;-69
2022/11/30 06:59:41;;;;;;;8.70;4.60;;;;;;;4.28;94.92;100825.31;5093147;28;20043;-70
2022/11/30 07:02:12;;;;;;;9.90;6.00;;;;;;;4.34;94.25;100814.63;5093356;28;20030;-70
2022/11/30 07:04:38;;;;;;;11.52;5.05;;;;;;;4.33;94.69;100837.94;5090628;28;20042;-70
2022/11/30 07:07:06;;;;;;;12.43;6.00;;;;;;;4.26;93.89;100834.91;5092404;28;20028;-70
2022/11/30 07:09:31;;;;;;;8.60;5.22;;;;;;;4.29;94.25;100829.53;5092322;28;20023;-70
2022/11/30 07:11:57;;;;;;;8.75;5.53;;;;;;;4.26;94.76;100845.22;5089107;28;20119;-70
2022/11/30 07:14:22;;;;;;;11.80;6.30;;;;;;;4.21;94.77;100842.13;5093736;28;20394;-70
2022/11/30 07:16:48;;;;;;;9.70;5.70;;;;;;;4.28;95.25;100842.53;5095325;28;20039;-70
2022/11/30 07:19:13;;;;;;;12.57;7.97;;;;;;;4.32;95.91;100846.59;5092545;28;20027;-70
2022/11/30 07:21:38;;;;;;;10.27;5.65;;;;;;;4.45;94.59;100833.75;5099276;28;20024;-70
2022/11/30 07:26:48;;;;;;;10.27;5.30;;;;;;;4.71;93.11;100840.69;5091106;28;20050;-71
2022/11/30 07:29:13;;;;;;;12.40;6.07;;;;;;;4.78;92.80;100847.09;5088610;28;20123;-70
2022/11/30 07:31:39;;;;;;;229.02;37.03;;;;;;;4.77;92.62;100845.44;5090486;28;20497;-70
2022/11/30 07:34:06;;;;;;;31.60;8.60;;;;;;;4.89;90.24;100839.50;5092126;28;20051;-71
2022/11/30 07:36:33;;;;;;;17.45;7.65;;;;;;;4.94;90.87;100846.94;5090441;28;20035;-71
2022/11/30 07:38:59;;;;;;;15.73;7.75;;;;;;;4.99;90.99;100839.72;5096098;28;20046;-71
2022/11/30 07:41:24;;;;;;;13.60;6.05;;;;;;;5.10;88.87;100854.53;5071666;28;20031;-71
2022/11/30 07:43:50;;;;;;;16.33;5.63;;;;;;;5.27;87.98;100862.81;5088019;28;20391;-71
2022/11/30 07:46:16;;;;;;;3.00;1.70;;;;;;;5.91;78.91;100844.78;5084507;28;20155;-71
2022/11/30 07:48:43;;;;;;;1.95;1.20;;;;;;;6.48;75.11;100834.69;5086483;28;20036;-70
2022/11/30 07:51:15;;;;;;;3.47;1.70;;;;;;;6.79;72.31;100843.66;5094817;28;20031;-71
2022/11/30 07:53:40;;;;;;;108.28;11.80;;;;;;;6.92;73.99;100841.84;5089588;28;20050;-70
2022/11/30 07:56:08;;;;;;;324.85;52.35;;;;;;;6.69;76.60;100847.84;5090801;28;20028;-71
2022/11/30 07:58:35;;;;;;;133.75;22.75;;;;;;;6.49;79.18;100845.88;5088001;28;20028;-69
2022/11/30 08:01:07;;;;;;;69.05;13.40;;;;;;;6.31;80.85;100848.81;5089044;28;20028;-69
2022/11/30 08:03:33;;;;;;;15.07;4.18;;;;;;;6.26;81.47;100861.25;5091328;28;20036;-69
2022/11/30 08:06:10;;;;;;;7.28;3.70;;;;;;;6.21;82.09;100857.31;5089364;28;20035;-69
2022/11/30 08:08:38;;;;;;;7.53;3.92;;;;;;;6.19;81.92;100849.66;5088559;28;20388;-70
2022/11/30 08:11:05;;;;;;;7.47;4.03;;;;;;;6.22;82.75;100854.63;5093538;28;20035;-70
2022/11/30 08:13:31;;;;;;;7.22;4.45;;;;;;;6.20;83.96;100856.50;5071598;28;20210;-70
2022/11/30 08:16:07;;;;;;;10.77;4.90;;;;;;;6.21;84.87;100862.50;5091170;28;20119;-70
2022/11/30 08:18:33;;;;;;;9.88;4.90;;;;;;;6.09;84.95;100859.03;5089620;28;21260;-70
2022/11/30 08:20:59;;;;;;;8.93;4.63;;;;;;;6.07;85.93;100863.47;5100467;28;20035;-70
2022/11/30 08:23:43;;;;;;;7.00;4.13;;;;;;;6.11;85.13;100864.94;5088622;28;20426;-70
2022/11/30 08:26:12;;;;;;;5.88;3.88;;;;;;;6.19;82.90;100865.19;5092823;28;20114;-70
2022/11/30 08:28:38;;;;;;;6.25;3.78;;;;;;;6.30;83.65;100861.88;5085220;28;20107;-70
2022/11/30 08:31:07;;;;;;;6.20;3.40;;;;;;;6.30;82.73;100867.88;5095993;28;20054;-70
2022/11/30 08:33:35;;;;;;;6.22;3.55;;;;;;;6.37;83.33;100862.25;5090443;28;20077;-70
2022/11/30 08:36:18;;;;;;;5.38;3.10;;;;;;;6.39;82.63;100870.75;5092321;28;20032;-70
2022/11/30 08:38:45;;;;;;;3.85;2.47;;;;;;;6.39;82.79;100860.41;5088865;28;20051;-70
2022/11/30 08:41:12;;;;;;;5.32;3.47;;;;;;;6.38;82.56;100859.56;5081831;28;20067;-70
2022/11/30 08:43:38;;;;;;;6.18;3.70;;;;;;;6.37;82.39;100870.03;5084647;28;20506;-70
2022/11/30 08:46:06;;;;;;;5.50;3.88;;;;;;;6.39;80.15;100868.16;5085116;28;20036;-70
2022/11/30 08:48:32;;;;;;;6.13;3.65;;;;;;;6.40;80.00;100870.66;5085221;28;23465;-70
2022/11/30 08:51:02;;;;;;;6.85;3.60;;;;;;;6.48;80.94;100860.56;5075146;28;20028;-70
2022/11/30 08:53:28;;;;;;;6.00;3.72;;;;;;;6.42;79.44;100865.34;5089404;28;20114;-71
2022/11/30 08:55:58;;;;;;;5.53;2.40;;;;;;;6.52;78.66;100868.97;5085677;28;20496;-70
2022/11/30 08:58:25;;;;;;;4.50;2.20;;;;;;;7.06;72.96;100863.31;5086046;28;20643;-71
2022/11/30 09:00:50;;;;;;;3.75;1.40;;;;;;;7.39;68.95;100878.97;5084486;28;20066;-70
2022/11/30 09:03:16;;;;;;;2.70;1.27;;;;;;;7.61;69.05;100860.03;5070025;28;20023;-70
2022/11/30 09:05:41;;;;;;;1.50;0.90;;;;;;;7.65;68.25;100851.91;5083083;28;20028;-70
2022/11/30 09:08:07;;;;;;;2.45;1.30;;;;;;;7.76;67.34;100858.03;5089175;28;20031;-71
2022/11/30 09:10:32;;;;;;;2.15;1.30;;;;;;;7.78;66.62;100867.34;5088566;28;20023;-70
2022/11/30 09:12:58;;;;;;;2.33;1.10;;;;;;;7.78;69.15;100877.75;5089414;28;20111;-70
2022/11/30 09:15:23;;;;;;;2.65;1.38;;;;;;;7.71;70.33;100863.56;5086891;28;20150;-72
2022/11/30 09:17:48;;;;;;;5.80;2.78;;;;;;;7.64;72.24;100872.75;5088976;28;20112;-71
2022/11/30 09:20:14;;;;;;;8.75;3.28;;;;;;;7.53;74.44;100886.56;5085508;28;20028;-71
2022/11/30 09:22:41;;;;;;;4.82;3.45;;;;;;;7.49;75.94;100879.13;5088055;28;20465;-71
2022/11/30 09:25:08;;;;;;;6.93;2.97;;;;;;;7.40;77.12;100882.38;5096834;28;20051;-72
2022/11/30 09:27:33;;;;;;;5.47;3.13;;;;;;;7.45;78.34;100883.69;5087086;28;20028;-72
2022/11/30 09:29:59;;;;;;;6.88;3.33;;;;;;;7.53;79.41;100878.78;5092486;28;20032;-72
2022/11/30 09:32:24;;;;;;;9.10;3.60;;;;;;;7.58;80.15;100879.22;5088208;28;20032;-72
2022/11/30 09:34:49;;;;;;;10.00;3.90;;;;;;;7.55;78.79;100889.84;5087288;28;20442;-72
2022/11/30 09:37:15;;;;;;;11.10;3.30;;;;;;;7.51;78.05;100880.66;5081908;28;20484;-72
2022/11/30 09:39:40;;;;;;;5.15;2.95;;;;;;;7.50;78.69;100871.22;5086517;28;20043;-73
2022/11/30 09:42:15;;;;;;;4.90;2.50;;;;;;;7.61;78.86;100863.44;5093515;28;20042;-72
2022/11/30 09:44:59;;;;;;;5.25;3.08;;;;;;;7.75;79.06;100870.19;5088386;28;20457;-72
2022/11/30 09:47:36;;;;;;;3.42;2.22;;;;;;;7.80;78.19;100860.28;5088363;28;20028;-71
2022/11/30 09:50:17;;;;;;;4.63;2.92;;;;;;;7.82;78.79;100860.16;5087601;28;20028;-70
2022/11/30 09:52:47;;;;;;;5.97;2.53;;;;;;;7.75;79.34;100864.16;5086501;28;20044;-71
2022/11/30 09:55:23;;;;;;;8.35;4.25;;;;;;;7.62;79.53;100869.44;5086502;28;20059;-71
2022/11/30 09:57:53;;;;;;;10.35;4.80;;;;;;;7.53;79.12;100870.16;5083017;28;20081;-70
2022/11/30 10:00:21;;;;;;;6.70;3.20;;;;;;;7.51;79.33;100857.31;5084799;28;20031;-71
2022/11/30 10:02:51;;;;;;;5.68;3.70;;;;;;;7.53;79.06;100860.63;5084015;28;20459;-71
2022/11/30 10:05:39;;;;;;;5.72;4.00;;;;;;;7.55;79.08;100863.94;5090809;28;20032;-70
2022/11/30 10:08:04;;;;;;;7.20;3.88;;;;;;;7.57;80.30;100854.25;5094261;28;20027;-70
2022/11/30 10:10:50;;;;;;;6.90;4.00;;;;;;;7.63;79.98;100837.41;5097657;28;20024;-70
2022/11/30 10:13:57;;;;;;;6.15;3.95;;;;;;;7.72;79.61;100834.09;5077062;28;20122;-70
2022/11/30 10:16:37;;;;;;;4.38;1.90;;;;;;;7.94;77.84;100859.25;5008727;28;20473;-70
2022/11/30 10:19:09;;;;;;;1.40;0.95;;;;;;;8.23;71.79;100842.22;4996535;28;20064;-71
2022/11/30 10:21:44;;;;;;;2.53;0.52;;;;;;;8.45;66.74;100837.97;5020785;28;20493;-70
2022/11/30 10:24:32;;;;;;;2.15;1.40;;;;;;;8.64;65.97;100838.13;5003841;28;20095;-70
2022/11/30 10:27:04;;;;;;;3.80;2.13;;;;;;;8.55;69.98;100844.88;5002625;28;20488;-70
2022/11/30 10:29:37;;;;;;;1.10;0.50;;;;;;;8.56;67.05;100836.16;5009298;28;20038;-71
2022/11/30 10:32:20;;;;;;;1.05;0.43;;;;;;;8.67;61.71;100845.69;5004494;28;20046;-70
2022/11/30 10:34:51;;;;;;;1.50;0.73;;;;;;;8.72;66.57;100846.16;5005957;28;20068;-70
2022/11/30 10:37:47;;;;;;;3.28;0.60;;;;;;;8.70;61.90;100845.44;5010077;28;20046;-70
2022/11/30 10:40:20;;;;;;;2.30;0.93;;;;;;;8.75;65.00;100839.88;4996247;28;20444;-71
2022/11/30 10:42:52;;;;;;;1.00;0.55;;;;;;;8.74;61.75;100833.84;5023922;28;20061;-70
2022/11/30 10:45:20;;;;;;;0.85;0.40;;;;;;;8.80;62.87;100822.97;5023289;28;20045;-70
2022/11/30 10:47:55;;;;;;;1.33;0.60;;;;;;;8.84;62.72;100826.16;5017736;28;20057;-71
2022/11/30 10:50:25;;;;;;;1.45;0.50;;;;;;;8.87;61.61;100823.31;5053972;28;20047;-72
2022/11/30 10:52:54;;;;;;;1.42;0.40;;;;;;;8.81;60.75;100816.00;5091755;28;20411;-72
2022/11/30 10:55:25;;;;;;;1.40;0.50;;;;;;;8.73;62.09;100810.59;5089666;28;20028;-72
2022/11/30 10:58:20;;;;;;;1.20;0.40;;;;;;;8.73;61.99;100818.41;5094500;28;20028;-70
2022/11/30 11:00:57;;;;;;;2.30;0.60;;;;;;;8.75;62.07;100813.91;5044721;28;20065;-72
2022/11/30 11:03:24;;;;;;;1.27;0.40;;;;;;;8.80;62.42;100825.56;5086846;28;20439;-72
2022/11/30 11:06:05;;;;;;;3.30;0.40;;;;;;;8.77;60.79;100820.63;5090594;28;20471;-72
2022/11/30 11:08:31;;;;;;;1.10;0.50;;;;;;;8.79;61.84;100810.09;5097578;28;20126;-71
2022/11/30 11:10:57;;;;;;;1.52;0.50;;;;;;;8.73;61.43;100818.41;5092808;28;20502;-72
2022/11/30 11:13:42;;;;;;;1.27;0.50;;;;;;;8.70;60.06;100809.06;5097142;28;20035;-73
2022/11/30 11:16:10;;;;;;;4.90;0.90;;;;;;;8.70;63.13;100811.66;5102574;28;20139;-73
2022/11/30 11:18:51;;;;;;;2.03;0.50;;;;;;;8.65;61.07;100799.06;5090967;28;20101;-71
2022/11/30 11:21:19;;;;;;;2.20;0.82;;;;;;;8.58;65.46;100834.25;5086444;28;20016;-71
2022/11/30 11:23:46;;;;;;;0.90;0.47;;;;;;;8.58;63.63;100818.66;5096492;28;20134;-72
2022/11/30 11:26:22;;;;;;;1.17;0.47;;;;;;;8.56;61.98;100814.53;5089243;28;20036;-70
2022/11/30 11:28:50;;;;;;;0.80;0.30;;;;;;;8.53;62.10;100810.41;5091028;28;20028;-73
2022/11/30 11:31:37;;;;;;;1.10;0.30;;;;;;;8.56;62.00;100812.78;5093393;28;20109;-72
2022/11/30 11:34:07;;;;;;;1.23;0.50;;;;;;;8.56;62.46;100809.34;5089452;28;20048;-72
2022/11/30 11:36:35;;;;;;;0.93;0.30;;;;;;;8.66;61.52;100802.47;5092046;28;20050;-71